sensor_id;sensor_type;location;lat;lon;timestamp;P1;durP1;ratioP1;P2;durP2;ratioP2
4808;SDS011;2418;49.930;8.606;2022-11-20T00:01:09;57.35;;;30.13;;
4808;SDS011;2418;49.930;8.606;2022-11-20T00:03:36;61.45;;;30.70;;
4808;SDS011;2418;49.930;8.606;2022-11-20T00:06:02;59.58;;;29.95;;
4808;SDS011;2418;49.930;8.606;2022-11-20T00:08:28;53.50;;;28.93;;
4808;SDS011;2418;49.930;8.606;2022-11-20T00:10:54;59.92;;;30.98;;
4808;SDS011;2418;49.930;8.606;2022-11-20T00:13:20;63.77;;;30.87;;
4808;SDS011;2418;49.930;8.606;2022-11-20T00:15:46;56.50;;;30.30;;
4808;SDS011;2418;49.930;8.606;2022-11-20T00:18:13;53.63;;;29.45;;
4808;SDS011;2418;49.930;8.606;2022-11-20T00:20:39;55.10;;;28.95;;
4808;SDS011;2418;49.930;8.606;2022-11-20T00:23:05;60.35;;;30.98;;
4808;SDS011;2418;49.930;8.606;2022-11-20T00:25:33;61.33;;;30.60;;
4808;SDS011;2418;49.930;8.606;2022-11-20T00:28:00;61.03;;;30.45;;
4808;SDS011;2418;49.930;8.606;2022-11-20T00:30:26;64.80;;;30.67;;
4808;SDS011;2418;49.930;8.606;2022-11-20T00:32:52;62.07;;;31.90;;
4808;SDS011;2418;49.930;8.606;2022-11-20T00:35:18;54.88;;;29.70;;
4808;SDS011;2418;49.930;8.606;2022-11-20T00:37:44;65.90;;;30.88;;
4808;SDS011;2418;49.930;8.606;2022-11-20T00:40:10;61.28;;;31.17;;
4808;SDS011;2418;49.930;8.606;2022-11-20T00:42:36;62.10;;;30.85;;
4808;SDS011;2418;49.930;8.606;2022-11-20T00:45:02;62.30;;;32.17;;
4808;SDS011;2418;49.930;8.606;2022-11-20T00:47:28;61.97;;;29.58;;
4808;SDS011;2418;49.930;8.606;2022-11-20T00:49:54;67.15;;;32.13;;
4808;SDS011;2418;49.930;8.606;2022-11-20T00:52:20;67.20;;;31.95;;
4808;SDS011;2418;49.930;8.606;2022-11-20T00:54:46;56.72;;;30.98;;
4808;SDS011;2418;49.930;8.606;2022-11-20T00:57:12;63.05;;;31.70;;
4808;SDS011;2418;49.930;8.606;2022-11-20T00:59:38;63.08;;;30.45;;
4808;SDS011;2418;49.930;8.606;2022-11-20T01:02:04;67.87;;;31.63;;
4808;SDS011;2418;49.930;8.606;2022-11-20T01:04:30;64.03;;;30.17;;
4808;SDS011;2418;49.930;8.606;2022-11-20T01:06:56;69.88;;;32.03;;
4808;SDS011;2418;49.930;8.606;2022-11-20T01:09:22;62.80;;;31.17;;
4808;SDS011;2418;49.930;8.606;2022-11-20T01:11:47;67.47;;;32.67;;
4808;SDS011;2418;49.930;8.606;2022-11-20T01:14:15;62.83;;;31.17;;
4808;SDS011;2418;49.930;8.606;2022-11-20T01:16:46;68.47;;;30.63;;
4808;SDS011;2418;49.930;8.606;2022-11-20T01:19:14;64.00;;;31.43;;
4808;SDS011;2418;49.930;8.606;2022-11-20T01:21:41;66.30;;;32.03;;
4808;SDS011;2418;49.930;8.606;2022-11-20T01:24:09;71.67;;;34.60;;
4808;SDS011;2418;49.930;8.606;2022-11-20T01:26:37;73.90;;;33.33;;
4808;SDS011;2418;49.930;8.606;2022-11-20T01:29:03;69.70;;;33.40;;
4808;SDS011;2418;49.930;8.606;2022-11-20T01:31:30;63.08;;;30.90;;
4808;SDS011;2418;49.930;8.606;2022-11-20T01:33:58;69.57;;;33.22;;
4808;SDS011;2418;49.930;8.606;2022-11-20T01:36:25;62.72;;;31.20;;
4808;SDS011;2418;49.930;8.606;2022-11-20T01:38:53;71.83;;;33.33;;
4808;SDS011;2418;49.930;8.606;2022-11-20T01:41:19;74.10;;;32.17;;
4808;SDS011;2418;49.930;8.606;2022-11-20T01:44:04;70.45;;;33.75;;
4808;SDS011;2418;49.930;8.606;2022-11-20T01:46:31;62.78;;;31.65;;
4808;SDS011;2418;49.930;8.606;2022-11-20T01:53:49;74.32;;;33.05;;
4808;SDS011;2418;49.930;8.606;2022-11-20T01:56:15;75.63;;;32.85;;
4808;SDS011;2418;49.930;8.606;2022-11-20T01:58:48;69.50;;;31.30;;
4808;SDS011;2418;49.930;8.606;2022-11-20T02:01:16;79.60;;;33.70;;
4808;SDS011;2418;49.930;8.606;2022-11-20T02:03:42;71.97;;;33.20;;
4808;SDS011;2418;49.930;8.606;2022-11-20T02:06:14;74.72;;;33.45;;
4808;SDS011;2418;49.930;8.606;2022-11-20T02:08:42;81.55;;;35.30;;
4808;SDS011;2418;49.930;8.606;2022-11-20T02:11:08;75.45;;;34.13;;
4808;SDS011;2418;49.930;8.606;2022-11-20T02:13:34;75.70;;;33.20;;
4808;SDS011;2418;49.930;8.606;2022-11-20T02:16:10;78.53;;;33.37;;
4808;SDS011;2418;49.930;8.606;2022-11-20T02:18:38;71.97;;;33.55;;
4808;SDS011;2418;49.930;8.606;2022-11-20T02:21:06;72.88;;;32.55;;
4808;SDS011;2418;49.930;8.606;2022-11-20T02:23:35;75.57;;;32.42;;
4808;SDS011;2418;49.930;8.606;2022-11-20T02:26:04;71.00;;;32.22;;
4808;SDS011;2418;49.930;8.606;2022-11-20T02:28:34;69.60;;;31.73;;
4808;SDS011;2418;49.930;8.606;2022-11-20T02:31:00;73.07;;;32.97;;
4808;SDS011;2418;49.930;8.606;2022-11-20T02:33:26;68.40;;;32.03;;
4808;SDS011;2418;49.930;8.606;2022-11-20T02:35:52;69.75;;;32.00;;
4808;SDS011;2418;49.930;8.606;2022-11-20T02:38:18;66.25;;;30.52;;
4808;SDS011;2418;49.930;8.606;2022-11-20T02:40:44;66.75;;;31.55;;
4808;SDS011;2418;49.930;8.606;2022-11-20T02:43:10;64.32;;;31.30;;
4808;SDS011;2418;49.930;8.606;2022-11-20T02:45:37;67.10;;;30.25;;
4808;SDS011;2418;49.930;8.606;2022-11-20T02:48:03;72.68;;;31.92;;
4808;SDS011;2418;49.930;8.606;2022-11-20T02:50:29;68.43;;;29.83;;
4808;SDS011;2418;49.930;8.606;2022-11-20T02:52:55;64.30;;;30.25;;
4808;SDS011;2418;49.930;8.606;2022-11-20T02:55:21;64.70;;;31.15;;
4808;SDS011;2418;49.930;8.606;2022-11-20T02:57:47;63.30;;;31.58;;
4808;SDS011;2418;49.930;8.606;2022-11-20T03:00:13;64.28;;;30.20;;
4808;SDS011;2418;49.930;8.606;2022-11-20T03:02:39;63.88;;;29.95;;
4808;SDS011;2418;49.930;8.606;2022-11-20T03:05:06;66.40;;;29.27;;
4808;SDS011;2418;49.930;8.606;2022-11-20T03:07:32;64.30;;;30.05;;
4808;SDS011;2418;49.930;8.606;2022-11-20T03:09:58;60.70;;;30.83;;
4808;SDS011;2418;49.930;8.606;2022-11-20T03:12:24;62.60;;;29.52;;
4808;SDS011;2418;49.930;8.606;2022-11-20T03:14:49;62.08;;;30.25;;
4808;SDS011;2418;49.930;8.606;2022-11-20T03:17:16;65.83;;;31.37;;
4808;SDS011;2418;49.930;8.606;2022-11-20T03:19:42;69.03;;;31.65;;
4808;SDS011;2418;49.930;8.606;2022-11-20T03:22:08;79.83;;;33.13;;
4808;SDS011;2418;49.930;8.606;2022-11-20T03:24:34;77.68;;;32.72;;
4808;SDS011;2418;49.930;8.606;2022-11-20T03:27:00;65.15;;;31.15;;
4808;SDS011;2418;49.930;8.606;2022-11-20T03:29:26;77.70;;;33.67;;
4808;SDS011;2418;49.930;8.606;2022-11-20T03:31:51;71.25;;;33.35;;
4808;SDS011;2418;49.930;8.606;2022-11-20T03:34:17;77.90;;;32.97;;
4808;SDS011;2418;49.930;8.606;2022-11-20T03:36:43;69.65;;;31.42;;
4808;SDS011;2418;49.930;8.606;2022-11-20T03:39:09;69.18;;;31.70;;
4808;SDS011;2418;49.930;8.606;2022-11-20T03:41:36;68.10;;;31.17;;
4808;SDS011;2418;49.930;8.606;2022-11-20T03:44:04;73.18;;;33.05;;
4808;SDS011;2418;49.930;8.606;2022-11-20T03:46:30;69.10;;;32.08;;
4808;SDS011;2418;49.930;8.606;2022-11-20T03:48:57;75.85;;;32.15;;
4808;SDS011;2418;49.930;8.606;2022-11-20T03:51:29;68.68;;;30.65;;
4808;SDS011;2418;49.930;8.606;2022-11-20T03:53:56;69.50;;;32.03;;
4808;SDS011;2418;49.930;8.606;2022-11-20T03:56:24;69.60;;;33.03;;
4808;SDS011;2418;49.930;8.606;2022-11-20T03:58:50;71.20;;;31.85;;
4808;SDS011;2418;49.930;8.606;2022-11-20T04:01:17;65.57;;;30.50;;
4808;SDS011;2418;49.930;8.606;2022-11-20T04:03:44;72.20;;;30.55;;
4808;SDS011;2418;49.930;8.606;2022-11-20T04:06:20;69.22;;;31.17;;
4808;SDS011;2418;49.930;8.606;2022-11-20T04:08:47;78.25;;;31.50;;
4808;SDS011;2418;49.930;8.606;2022-11-20T04:11:14;72.10;;;29.50;;
4808;SDS011;2418;49.930;8.606;2022-11-20T04:13:41;66.10;;;30.93;;
4808;SDS011;2418;49.930;8.606;2022-11-20T04:16:08;58.60;;;28.10;;
4808;SDS011;2418;49.930;8.606;2022-11-20T04:18:34;65.22;;;29.77;;
4808;SDS011;2418;49.930;8.606;2022-11-20T04:21:01;66.40;;;29.90;;
4808;SDS011;2418;49.930;8.606;2022-11-20T04:23:27;73.93;;;32.72;;
4808;SDS011;2418;49.930;8.606;2022-11-20T04:25:53;68.95;;;30.60;;
4808;SDS011;2418;49.930;8.606;2022-11-20T04:28:19;69.53;;;31.92;;
4808;SDS011;2418;49.930;8.606;2022-11-20T04:30:45;70.57;;;30.58;;
4808;SDS011;2418;49.930;8.606;2022-11-20T04:33:11;67.28;;;31.17;;
4808;SDS011;2418;49.930;8.606;2022-11-20T04:35:37;73.70;;;31.50;;
4808;SDS011;2418;49.930;8.606;2022-11-20T04:38:03;72.67;;;30.87;;
4808;SDS011;2418;49.930;8.606;2022-11-20T04:40:30;69.10;;;31.27;;
4808;SDS011;2418;49.930;8.606;2022-11-20T04:42:56;66.13;;;29.30;;
4808;SDS011;2418;49.930;8.606;2022-11-20T04:45:22;73.47;;;31.52;;
4808;SDS011;2418;49.930;8.606;2022-11-20T04:47:48;77.13;;;31.80;;
4808;SDS011;2418;49.930;8.606;2022-11-20T04:50:15;76.70;;;33.38;;
4808;SDS011;2418;49.930;8.606;2022-11-20T04:52:40;74.85;;;31.35;;
4808;SDS011;2418;49.930;8.606;2022-11-20T04:55:07;71.38;;;32.25;;
4808;SDS011;2418;49.930;8.606;2022-11-20T04:57:33;73.07;;;32.65;;
4808;SDS011;2418;49.930;8.606;2022-11-20T04:59:59;68.50;;;30.88;;
4808;SDS011;2418;49.930;8.606;2022-11-20T05:02:25;65.80;;;30.83;;
4808;SDS011;2418;49.930;8.606;2022-11-20T05:04:51;59.17;;;30.08;;
4808;SDS011;2418;49.930;8.606;2022-11-20T05:07:17;67.88;;;30.58;;
4808;SDS011;2418;49.930;8.606;2022-11-20T05:09:43;70.03;;;30.37;;
4808;SDS011;2418;49.930;8.606;2022-11-20T05:12:09;72.38;;;31.10;;
4808;SDS011;2418;49.930;8.606;2022-11-20T05:14:35;67.30;;;30.52;;
4808;SDS011;2418;49.930;8.606;2022-11-20T05:17:01;65.35;;;29.13;;
4808;SDS011;2418;49.930;8.606;2022-11-20T05:19:27;73.18;;;31.45;;
4808;SDS011;2418;49.930;8.606;2022-11-20T05:21:53;72.63;;;31.42;;
4808;SDS011;2418;49.930;8.606;2022-11-20T05:24:19;76.50;;;30.65;;
4808;SDS011;2418;49.930;8.606;2022-11-20T05:26:44;71.43;;;31.53;;
4808;SDS011;2418;49.930;8.606;2022-11-20T05:29:11;76.20;;;32.13;;
4808;SDS011;2418;49.930;8.606;2022-11-20T05:31:38;73.50;;;31.58;;
4808;SDS011;2418;49.930;8.606;2022-11-20T05:34:04;69.50;;;31.27;;
4808;SDS011;2418;49.930;8.606;2022-11-20T05:36:30;73.65;;;30.63;;
4808;SDS011;2418;49.930;8.606;2022-11-20T05:38:56;78.90;;;33.63;;
4808;SDS011;2418;49.930;8.606;2022-11-20T05:41:22;90.38;;;34.63;;
4808;SDS011;2418;49.930;8.606;2022-11-20T05:43:49;82.95;;;34.92;;
4808;SDS011;2418;49.930;8.606;2022-11-20T05:46:15;82.28;;;33.78;;
4808;SDS011;2418;49.930;8.606;2022-11-20T05:48:42;87.70;;;33.40;;
4808;SDS011;2418;49.930;8.606;2022-11-20T05:51:10;87.05;;;33.65;;
4808;SDS011;2418;49.930;8.606;2022-11-20T05:53:36;94.78;;;34.63;;
4808;SDS011;2418;49.930;8.606;2022-11-20T05:56:07;96.85;;;33.28;;
4808;SDS011;2418;49.930;8.606;2022-11-20T05:58:34;78.55;;;31.85;;
4808;SDS011;2418;49.930;8.606;2022-11-20T06:01:04;75.75;;;32.30;;
4808;SDS011;2418;49.930;8.606;2022-11-20T06:03:30;73.22;;;31.80;;
4808;SDS011;2418;49.930;8.606;2022-11-20T06:05:58;70.30;;;30.57;;
4808;SDS011;2418;49.930;8.606;2022-11-20T06:08:24;79.88;;;32.25;;
4808;SDS011;2418;49.930;8.606;2022-11-20T06:10:50;77.53;;;32.17;;
4808;SDS011;2418;49.930;8.606;2022-11-20T06:13:16;77.00;;;31.42;;
4808;SDS011;2418;49.930;8.606;2022-11-20T06:15:42;77.50;;;32.17;;
4808;SDS011;2418;49.930;8.606;2022-11-20T06:18:08;84.45;;;32.35;;
4808;SDS011;2418;49.930;8.606;2022-11-20T06:20:33;73.78;;;31.80;;
4808;SDS011;2418;49.930;8.606;2022-11-20T06:22:59;77.57;;;32.20;;
4808;SDS011;2418;49.930;8.606;2022-11-20T06:25:25;78.90;;;31.55;;
4808;SDS011;2418;49.930;8.606;2022-11-20T06:27:51;79.10;;;30.77;;
4808;SDS011;2418;49.930;8.606;2022-11-20T06:30:17;68.45;;;29.33;;
4808;SDS011;2418;49.930;8.606;2022-11-20T06:32:43;74.75;;;29.02;;
4808;SDS011;2418;49.930;8.606;2022-11-20T06:35:09;72.10;;;30.87;;
4808;SDS011;2418;49.930;8.606;2022-11-20T06:37:35;69.35;;;30.40;;
4808;SDS011;2418;49.930;8.606;2022-11-20T06:40:01;63.70;;;27.27;;
4808;SDS011;2418;49.930;8.606;2022-11-20T06:42:27;62.75;;;26.85;;
4808;SDS011;2418;49.930;8.606;2022-11-20T06:44:53;64.57;;;29.20;;
4808;SDS011;2418;49.930;8.606;2022-11-20T06:47:19;64.53;;;27.35;;
4808;SDS011;2418;49.930;8.606;2022-11-20T06:49:45;66.90;;;28.75;;
4808;SDS011;2418;49.930;8.606;2022-11-20T06:52:11;62.30;;;29.07;;
4808;SDS011;2418;49.930;8.606;2022-11-20T06:54:37;71.00;;;29.00;;
4808;SDS011;2418;49.930;8.606;2022-11-20T06:57:03;66.32;;;27.77;;
4808;SDS011;2418;49.930;8.606;2022-11-20T06:59:29;57.78;;;26.55;;
4808;SDS011;2418;49.930;8.606;2022-11-20T07:01:55;56.50;;;26.20;;
4808;SDS011;2418;49.930;8.606;2022-11-20T07:04:21;54.05;;;26.23;;
4808;SDS011;2418;49.930;8.606;2022-11-20T07:06:47;59.60;;;27.42;;
4808;SDS011;2418;49.930;8.606;2022-11-20T07:09:13;55.45;;;25.63;;
4808;SDS011;2418;49.930;8.606;2022-11-20T07:11:39;58.00;;;26.13;;
4808;SDS011;2418;49.930;8.606;2022-11-20T07:14:05;64.07;;;28.00;;
4808;SDS011;2418;49.930;8.606;2022-11-20T07:16:31;58.28;;;27.13;;
4808;SDS011;2418;49.930;8.606;2022-11-20T07:18:57;70.82;;;29.98;;
4808;SDS011;2418;49.930;8.606;2022-11-20T07:21:23;69.28;;;29.40;;
4808;SDS011;2418;49.930;8.606;2022-11-20T07:23:49;64.53;;;28.08;;
4808;SDS011;2418;49.930;8.606;2022-11-20T07:26:15;67.60;;;28.98;;
4808;SDS011;2418;49.930;8.606;2022-11-20T07:28:43;62.38;;;27.65;;
4808;SDS011;2418;49.930;8.606;2022-11-20T07:31:10;74.07;;;28.27;;
4808;SDS011;2418;49.930;8.606;2022-11-20T07:33:36;64.75;;;28.45;;
4808;SDS011;2418;49.930;8.606;2022-11-20T07:36:03;63.03;;;28.90;;
4808;SDS011;2418;49.930;8.606;2022-11-20T07:38:29;67.30;;;29.10;;
4808;SDS011;2418;49.930;8.606;2022-11-20T07:40:58;77.30;;;30.73;;
4808;SDS011;2418;49.930;8.606;2022-11-20T07:43:26;74.97;;;30.60;;
4808;SDS011;2418;49.930;8.606;2022-11-20T07:45:54;68.53;;;29.38;;
4808;SDS011;2418;49.930;8.606;2022-11-20T07:48:21;68.32;;;28.27;;
4808;SDS011;2418;49.930;8.606;2022-11-20T07:50:47;71.00;;;29.03;;
4808;SDS011;2418;49.930;8.606;2022-11-20T07:53:13;71.95;;;28.67;;
4808;SDS011;2418;49.930;8.606;2022-11-20T07:55:39;69.65;;;29.73;;
4808;SDS011;2418;49.930;8.606;2022-11-20T07:58:05;63.95;;;28.00;;
4808;SDS011;2418;49.930;8.606;2022-11-20T08:00:31;60.40;;;27.77;;
4808;SDS011;2418;49.930;8.606;2022-11-20T08:02:57;63.97;;;25.83;;
4808;SDS011;2418;49.930;8.606;2022-11-20T08:05:23;54.53;;;26.10;;
4808;SDS011;2418;49.930;8.606;2022-11-20T08:07:49;49.45;;;25.17;;
4808;SDS011;2418;49.930;8.606;2022-11-20T08:10:15;50.00;;;23.70;;
4808;SDS011;2418;49.930;8.606;2022-11-20T08:12:45;46.90;;;23.98;;
4808;SDS011;2418;49.930;8.606;2022-11-20T08:15:30;53.38;;;24.75;;
4808;SDS011;2418;49.930;8.606;2022-11-20T08:18:04;55.47;;;25.58;;
4808;SDS011;2418;49.930;8.606;2022-11-20T08:20:30;51.78;;;25.75;;
4808;SDS011;2418;49.930;8.606;2022-11-20T08:23:14;51.63;;;26.02;;
4808;SDS011;2418;49.930;8.606;2022-11-20T08:25:40;45.90;;;24.60;;
4808;SDS011;2418;49.930;8.606;2022-11-20T08:28:07;85.57;;;39.93;;
4808;SDS011;2418;49.930;8.606;2022-11-20T08:30:33;109.00;;;57.13;;
4808;SDS011;2418;49.930;8.606;2022-11-20T08:33:04;83.70;;;43.95;;
4808;SDS011;2418;49.930;8.606;2022-11-20T08:35:33;63.30;;;32.80;;
4808;SDS011;2418;49.930;8.606;2022-11-20T08:38:00;49.83;;;26.67;;
4808;SDS011;2418;49.930;8.606;2022-11-20T08:40:26;45.10;;;26.20;;
4808;SDS011;2418;49.930;8.606;2022-11-20T08:42:52;37.30;;;22.45;;
4808;SDS011;2418;49.930;8.606;2022-11-20T08:45:18;36.60;;;21.67;;
4808;SDS011;2418;49.930;8.606;2022-11-20T08:47:45;39.00;;;22.38;;
4808;SDS011;2418;49.930;8.606;2022-11-20T08:50:12;36.20;;;21.23;;
4808;SDS011;2418;49.930;8.606;2022-11-20T08:52:38;36.03;;;21.93;;
4808;SDS011;2418;49.930;8.606;2022-11-20T08:55:04;36.97;;;20.58;;
4808;SDS011;2418;49.930;8.606;2022-11-20T08:57:34;29.15;;;18.90;;
4808;SDS011;2418;49.930;8.606;2022-11-20T09:00:01;38.95;;;22.20;;
4808;SDS011;2418;49.930;8.606;2022-11-20T09:02:27;33.15;;;20.00;;
4808;SDS011;2418;49.930;8.606;2022-11-20T09:04:53;33.25;;;20.90;;
4808;SDS011;2418;49.930;8.606;2022-11-20T09:07:19;33.92;;;20.50;;
4808;SDS011;2418;49.930;8.606;2022-11-20T09:09:46;32.38;;;19.92;;
4808;SDS011;2418;49.930;8.606;2022-11-20T09:12:12;33.00;;;20.88;;
4808;SDS011;2418;49.930;8.606;2022-11-20T09:14:38;46.40;;;25.37;;
4808;SDS011;2418;49.930;8.606;2022-11-20T09:17:04;34.72;;;21.23;;
4808;SDS011;2418;49.930;8.606;2022-11-20T09:19:32;36.95;;;21.60;;
4808;SDS011;2418;49.930;8.606;2022-11-20T09:21:58;34.85;;;20.65;;
4808;SDS011;2418;49.930;8.606;2022-11-20T09:24:25;30.50;;;20.53;;
4808;SDS011;2418;49.930;8.606;2022-11-20T09:26:51;33.92;;;21.65;;
4808;SDS011;2418;49.930;8.606;2022-11-20T09:29:17;31.33;;;20.67;;
4808;SDS011;2418;49.930;8.606;2022-11-20T09:31:43;33.03;;;20.88;;
4808;SDS011;2418;49.930;8.606;2022-11-20T09:34:09;29.83;;;19.47;;
4808;SDS011;2418;49.930;8.606;2022-11-20T09:36:35;32.15;;;20.90;;
4808;SDS011;2418;49.930;8.606;2022-11-20T09:39:01;32.38;;;20.65;;
4808;SDS011;2418;49.930;8.606;2022-11-20T09:41:42;37.53;;;21.98;;
4808;SDS011;2418;49.930;8.606;2022-11-20T09:52:00;53.47;;;30.83;;
4808;SDS011;2418;49.930;8.606;2022-11-20T09:54:30;33.25;;;20.10;;
4808;SDS011;2418;49.930;8.606;2022-11-20T09:57:11;31.63;;;19.63;;
4808;SDS011;2418;49.930;8.606;2022-11-20T09:59:39;33.70;;;19.40;;
4808;SDS011;2418;49.930;8.606;2022-11-20T10:04:43;33.47;;;19.80;;
4808;SDS011;2418;49.930;8.606;2022-11-20T10:07:16;33.15;;;20.70;;
4808;SDS011;2418;49.930;8.606;2022-11-20T10:09:45;32.50;;;20.65;;
4808;SDS011;2418;49.930;8.606;2022-11-20T10:17:53;36.08;;;21.23;;
4808;SDS011;2418;49.930;8.606;2022-11-20T10:20:27;31.15;;;19.83;;
4808;SDS011;2418;49.930;8.606;2022-11-20T10:23:10;35.85;;;21.00;;
4808;SDS011;2418;49.930;8.606;2022-11-20T10:31:03;36.70;;;23.00;;
4808;SDS011;2418;49.930;8.606;2022-11-20T10:33:31;36.15;;;22.65;;
4808;SDS011;2418;49.930;8.606;2022-11-20T10:41:26;39.00;;;23.85;;
4808;SDS011;2418;49.930;8.606;2022-11-20T10:46:25;36.15;;;22.20;;
4808;SDS011;2418;49.930;8.606;2022-11-20T10:48:53;101.47;;;42.70;;
4808;SDS011;2418;49.930;8.606;2022-11-20T10:56:51;31.65;;;20.42;;
4808;SDS011;2418;49.930;8.606;2022-11-20T10:59:29;42.58;;;23.77;;
4808;SDS011;2418;49.930;8.606;2022-11-20T11:01:58;35.77;;;21.67;;
4808;SDS011;2418;49.930;8.606;2022-11-20T11:04:33;38.15;;;23.13;;
4808;SDS011;2418;49.930;8.606;2022-11-20T11:07:12;34.45;;;21.98;;
4808;SDS011;2418;49.930;8.606;2022-11-20T11:09:41;37.58;;;23.08;;
4808;SDS011;2418;49.930;8.606;2022-11-20T11:12:14;36.88;;;22.83;;
4808;SDS011;2418;49.930;8.606;2022-11-20T11:14:47;35.93;;;21.37;;
4808;SDS011;2418;49.930;8.606;2022-11-20T11:17:22;37.78;;;22.67;;
4808;SDS011;2418;49.930;8.606;2022-11-20T11:19:58;39.38;;;24.23;;
4808;SDS011;2418;49.930;8.606;2022-11-20T11:22:24;37.50;;;22.80;;
4808;SDS011;2418;49.930;8.606;2022-11-20T11:24:51;36.10;;;22.05;;
4808;SDS011;2418;49.930;8.606;2022-11-20T11:27:17;41.60;;;24.80;;
4808;SDS011;2418;49.930;8.606;2022-11-20T11:29:43;50.72;;;30.00;;
4808;SDS011;2418;49.930;8.606;2022-11-20T11:32:13;198.80;;;91.90;;
4808;SDS011;2418;49.930;8.606;2022-11-20T11:34:40;68.38;;;36.90;;
4808;SDS011;2418;49.930;8.606;2022-11-20T11:37:19;49.28;;;27.20;;
4808;SDS011;2418;49.930;8.606;2022-11-20T11:39:46;60.00;;;33.60;;
4808;SDS011;2418;49.930;8.606;2022-11-20T11:42:13;50.25;;;30.20;;
4808;SDS011;2418;49.930;8.606;2022-11-20T11:44:45;28.35;;;18.58;;
4808;SDS011;2418;49.930;8.606;2022-11-20T11:52:36;35.60;;;23.15;;
4808;SDS011;2418;49.930;8.606;2022-11-20T11:55:03;34.08;;;22.10;;
4808;SDS011;2418;49.930;8.606;2022-11-20T11:57:36;28.42;;;19.88;;
4808;SDS011;2418;49.930;8.606;2022-11-20T12:05:17;34.75;;;22.83;;
4808;SDS011;2418;49.930;8.606;2022-11-20T12:10:20;28.20;;;19.45;;
4808;SDS011;2418;49.930;8.606;2022-11-20T12:12:51;35.77;;;20.60;;
4808;SDS011;2418;49.930;8.606;2022-11-20T12:15:23;33.00;;;22.13;;
4808;SDS011;2418;49.930;8.606;2022-11-20T12:17:53;34.85;;;23.15;;
4808;SDS011;2418;49.930;8.606;2022-11-20T12:20:19;33.65;;;21.98;;
4808;SDS011;2418;49.930;8.606;2022-11-20T12:22:59;34.17;;;21.00;;
4808;SDS011;2418;49.930;8.606;2022-11-20T12:25:28;30.80;;;20.60;;
4808;SDS011;2418;49.930;8.606;2022-11-20T12:30:25;30.17;;;19.67;;
4808;SDS011;2418;49.930;8.606;2022-11-20T12:35:26;28.75;;;18.45;;
4808;SDS011;2418;49.930;8.606;2022-11-20T12:38:07;29.48;;;18.63;;
4808;SDS011;2418;49.930;8.606;2022-11-20T12:46:00;29.67;;;20.48;;
4808;SDS011;2418;49.930;8.606;2022-11-20T12:48:42;31.75;;;21.10;;
4808;SDS011;2418;49.930;8.606;2022-11-20T13:07:25;26.38;;;19.63;;
4808;SDS011;2418;49.930;8.606;2022-11-20T13:09:52;26.35;;;17.00;;
4808;SDS011;2418;49.930;8.606;2022-11-20T13:12:40;26.40;;;17.60;;
4808;SDS011;2418;49.930;8.606;2022-11-20T13:17:48;29.23;;;18.92;;
4808;SDS011;2418;49.930;8.606;2022-11-20T13:20:17;27.10;;;18.60;;
4808;SDS011;2418;49.930;8.606;2022-11-20T13:22:45;32.27;;;20.00;;
4808;SDS011;2418;49.930;8.606;2022-11-20T13:27:49;42.22;;;24.67;;
4808;SDS011;2418;49.930;8.606;2022-11-20T13:30:16;36.45;;;21.13;;
4808;SDS011;2418;49.930;8.606;2022-11-20T13:38:03;32.53;;;21.05;;
4808;SDS011;2418;49.930;8.606;2022-11-20T13:40:30;31.20;;;21.02;;
4808;SDS011;2418;49.930;8.606;2022-11-20T13:43:01;28.55;;;19.00;;
4808;SDS011;2418;49.930;8.606;2022-11-20T13:45:31;28.52;;;17.70;;
4808;SDS011;2418;49.930;8.606;2022-11-20T13:47:59;31.10;;;18.00;;
4808;SDS011;2418;49.930;8.606;2022-11-20T13:56:08;34.67;;;22.97;;
4808;SDS011;2418;49.930;8.606;2022-11-20T13:58:50;30.63;;;19.75;;
4808;SDS011;2418;49.930;8.606;2022-11-20T14:01:20;30.35;;;18.85;;
4808;SDS011;2418;49.930;8.606;2022-11-20T14:03:47;25.90;;;16.83;;
4808;SDS011;2418;49.930;8.606;2022-11-20T14:06:23;30.08;;;17.60;;
4808;SDS011;2418;49.930;8.606;2022-11-20T14:08:52;30.92;;;17.70;;
4808;SDS011;2418;49.930;8.606;2022-11-20T14:11:19;28.73;;;18.45;;
4808;SDS011;2418;49.930;8.606;2022-11-20T14:16:30;41.75;;;24.80;;
4808;SDS011;2418;49.930;8.606;2022-11-20T14:18:57;34.40;;;21.38;;
4808;SDS011;2418;49.930;8.606;2022-11-20T14:21:27;36.55;;;22.17;;
4808;SDS011;2418;49.930;8.606;2022-11-20T14:24:06;38.72;;;21.60;;
4808;SDS011;2418;49.930;8.606;2022-11-20T14:26:32;61.90;;;31.33;;
4808;SDS011;2418;49.930;8.606;2022-11-20T14:28:58;64.57;;;33.65;;
4808;SDS011;2418;49.930;8.606;2022-11-20T14:31:25;42.85;;;24.70;;
4808;SDS011;2418;49.930;8.606;2022-11-20T14:33:52;65.07;;;33.40;;
4808;SDS011;2418;49.930;8.606;2022-11-20T14:36:19;41.53;;;25.40;;
4808;SDS011;2418;49.930;8.606;2022-11-20T14:38:46;33.08;;;20.25;;
4808;SDS011;2418;49.930;8.606;2022-11-20T14:41:19;32.53;;;20.10;;
4808;SDS011;2418;49.930;8.606;2022-11-20T14:43:45;28.27;;;19.00;;
4808;SDS011;2418;49.930;8.606;2022-11-20T14:46:12;36.50;;;20.87;;
4808;SDS011;2418;49.930;8.606;2022-11-20T14:48:43;31.35;;;21.90;;
4808;SDS011;2418;49.930;8.606;2022-11-20T14:53:51;37.40;;;23.90;;
4808;SDS011;2418;49.930;8.606;2022-11-20T14:56:21;42.60;;;25.95;;
4808;SDS011;2418;49.930;8.606;2022-11-20T14:58:54;41.40;;;23.88;;
4808;SDS011;2418;49.930;8.606;2022-11-20T15:01:25;37.50;;;22.50;;
4808;SDS011;2418;49.930;8.606;2022-11-20T15:03:57;41.72;;;23.50;;
4808;SDS011;2418;49.930;8.606;2022-11-20T15:06:25;50.78;;;29.88;;
4808;SDS011;2418;49.930;8.606;2022-11-20T15:08:51;44.38;;;25.85;;
4808;SDS011;2418;49.930;8.606;2022-11-20T15:11:18;43.63;;;24.77;;
4808;SDS011;2418;49.930;8.606;2022-11-20T15:13:45;79.50;;;43.03;;
4808;SDS011;2418;49.930;8.606;2022-11-20T15:16:18;92.80;;;49.13;;
4808;SDS011;2418;49.930;8.606;2022-11-20T15:18:45;97.30;;;52.70;;
4808;SDS011;2418;49.930;8.606;2022-11-20T15:21:15;63.55;;;35.45;;
4808;SDS011;2418;49.930;8.606;2022-11-20T15:23:42;41.00;;;24.42;;
4808;SDS011;2418;49.930;8.606;2022-11-20T15:26:08;34.70;;;22.45;;
4808;SDS011;2418;49.930;8.606;2022-11-20T15:28:44;38.90;;;22.60;;
4808;SDS011;2418;49.930;8.606;2022-11-20T15:31:13;38.45;;;22.60;;
4808;SDS011;2418;49.930;8.606;2022-11-20T15:33:39;34.50;;;20.52;;
4808;SDS011;2418;49.930;8.606;2022-11-20T15:36:05;34.38;;;20.30;;
4808;SDS011;2418;49.930;8.606;2022-11-20T15:38:31;32.55;;;19.95;;
4808;SDS011;2418;49.930;8.606;2022-11-20T15:40:57;41.78;;;22.85;;
4808;SDS011;2418;49.930;8.606;2022-11-20T15:43:23;38.33;;;22.00;;
4808;SDS011;2418;49.930;8.606;2022-11-20T15:45:51;42.15;;;23.35;;
4808;SDS011;2418;49.930;8.606;2022-11-20T15:48:18;38.40;;;22.48;;
4808;SDS011;2418;49.930;8.606;2022-11-20T15:53:13;40.95;;;23.50;;
4808;SDS011;2418;49.930;8.606;2022-11-20T15:55:39;44.22;;;24.00;;
4808;SDS011;2418;49.930;8.606;2022-11-20T15:58:05;43.67;;;24.15;;
4808;SDS011;2418;49.930;8.606;2022-11-20T16:00:31;41.05;;;22.50;;
4808;SDS011;2418;49.930;8.606;2022-11-20T16:02:57;42.13;;;23.73;;
4808;SDS011;2418;49.930;8.606;2022-11-20T16:05:23;45.05;;;26.13;;
4808;SDS011;2418;49.930;8.606;2022-11-20T16:07:50;46.05;;;25.65;;
4808;SDS011;2418;49.930;8.606;2022-11-20T16:10:17;42.70;;;24.60;;
4808;SDS011;2418;49.930;8.606;2022-11-20T16:12:43;40.80;;;22.80;;
4808;SDS011;2418;49.930;8.606;2022-11-20T16:15:28;43.00;;;22.50;;
4808;SDS011;2418;49.930;8.606;2022-11-20T16:18:15;44.15;;;24.05;;
4808;SDS011;2418;49.930;8.606;2022-11-20T16:20:42;39.28;;;25.00;;
4808;SDS011;2418;49.930;8.606;2022-11-20T16:23:08;45.55;;;25.95;;
4808;SDS011;2418;49.930;8.606;2022-11-20T16:25:34;37.87;;;22.80;;
4808;SDS011;2418;49.930;8.606;2022-11-20T16:28:00;35.15;;;21.63;;
4808;SDS011;2418;49.930;8.606;2022-11-20T16:30:26;44.92;;;26.60;;
4808;SDS011;2418;49.930;8.606;2022-11-20T16:32:52;47.05;;;25.45;;
4808;SDS011;2418;49.930;8.606;2022-11-20T16:35:18;48.85;;;26.38;;